Time;durP1;ratioP1;P1;durP2;ratioP2;P2;SDS_P1;SDS_P2;PMS_P1;PMS_P2;Temp;Humidity;BMP_temperature;BMP_pressure;BME280_temperature;BME280_humidity;BME280_pressure;Samples;Min_cycle;Max_cycle;Signal;HPM_P1;HPM_P2
2022/01/24 00:01:41;;;;;;;20.20;14.13;;;;;;;;;;4960750;28;20293;-65
2022/01/24 00:04:09;;;;;;;21.73;13.67;;;;;;;;;;4958457;28;20212;-63
2022/01/24 00:06:37;;;;;;;20.70;13.30;;;;;;;;;;4959332;28;20201;-65
2022/01/24 00:09:08;;;;;;;20.90;13.13;;;;;;;;;;4960295;28;20208;-64
2022/01/24 00:27:49;;;;;;;16.70;11.10;;;;;;;;;;4949407;28;20223;-65
2022/01/24 00:30:17;;;;;;;16.33;10.87;;;;;;;;;;4953731;28;20240;-65
2022/01/24 00:32:45;;;;;;;16.97;11.60;;;;;;;;;;4958207;28;20228;-64
2022/01/24 00:35:12;;;;;;;14.77;11.23;;;;;;;;;;4962367;28;20241;-64
2022/01/24 00:37:40;;;;;;;18.73;11.90;;;;;;;;;;4943930;28;20686;-64
2022/01/24 00:40:08;;;;;;;16.40;10.70;;;;;;;;;;4955773;28;20228;-63
2022/01/24 00:46:16;;;;;;;17.80;12.00;;;;;;;;;;4950026;28;20302;-64
2022/01/24 00:54:02;;;;;;;19.63;12.37;;;;;;;;;;4952775;28;20255;-64
2022/01/24 00:56:29;;;;;;;21.27;12.77;;;;;;;;;;4956160;28;21017;-64
2022/01/24 00:58:57;;;;;;;21.50;12.53;;;;;;;;;;4959637;28;20207;-63
2022/01/24 01:01:25;;;;;;;22.33;12.70;;;;;;;;;;4956591;28;20228;-64
2022/01/24 01:03:52;;;;;;;18.53;12.23;;;;;;;;;;4956121;28;20308;-63
2022/01/24 01:06:19;;;;;;;21.90;13.13;;;;;;;;;;4955785;28;20259;-65
2022/01/24 01:19:52;;;;;;;21.23;13.23;;;;;;;;;;4962244;28;20235;-63
2022/01/24 01:22:19;;;;;;;22.03;13.73;;;;;;;;;;4957203;28;20267;-65
2022/01/24 01:24:51;;;;;;;22.50;13.03;;;;;;;;;;4962710;28;20215;-65
2022/01/24 01:27:25;;;;;;;19.93;12.10;;;;;;;;;;4954457;28;20293;-63
2022/01/24 01:35:36;;;;;;;22.50;14.43;;;;;;;;;;4939380;28;20217;-62
2022/01/24 01:54:48;;;;;;;25.80;15.63;;;;;;;;;;4954975;28;20216;-63
2022/01/24 01:57:17;;;;;;;23.80;14.73;;;;;;;;;;4953392;28;20699;-66
2022/01/24 01:59:45;;;;;;;25.77;15.27;;;;;;;;;;4960743;28;20236;-65
2022/01/24 02:02:12;;;;;;;23.90;14.83;;;;;;;;;;4954892;28;21308;-63
2022/01/24 02:04:40;;;;;;;24.17;15.23;;;;;;;;;;4952739;28;23665;-65
2022/01/24 02:07:12;;;;;;;22.63;14.20;;;;;;;;;;4951286;28;20212;-63
2022/01/24 02:09:42;;;;;;;22.37;14.97;;;;;;;;;;4954674;28;20228;-62
2022/01/24 02:12:11;;;;;;;23.67;15.23;;;;;;;;;;4955227;28;20319;-64
2022/01/24 02:14:45;;;;;;;21.40;14.60;;;;;;;;;;4958217;28;20231;-64
2022/01/24 02:17:20;;;;;;;20.70;13.97;;;;;;;;;;4953724;28;20219;-64
2022/01/24 02:23:57;;;;;;;21.87;13.30;;;;;;;;;;4923519;29;20224;-64
2022/01/24 02:25:51;;;;;;;18.10;12.50;;;;;;;;;;4943959;28;20829;-65
2022/01/24 02:28:21;;;;;;;19.47;12.37;;;;;;;;;;4957475;28;20205;-64
2022/01/24 02:33:51;;;;;;;16.90;11.40;;;;;;;;;;4932224;28;20239;-64
2022/01/24 02:36:23;;;;;;;16.87;11.47;;;;;;;;;;4949513;28;20673;-64
2022/01/24 02:49:29;;;;;;;14.67;10.57;;;;;;;;;;4960530;28;20232;-63
2022/01/24 02:52:03;;;;;;;15.07;10.80;;;;;;;;;;4951039;28;21730;-64
2022/01/24 02:54:32;;;;;;;16.93;10.97;;;;;;;;;;4951948;28;20207;-63
2022/01/24 02:57:00;;;;;;;16.37;10.50;;;;;;;;;;4956943;28;20261;-63
2022/01/24 02:59:28;;;;;;;13.43;10.03;;;;;;;;;;4946781;28;20224;-63
2022/01/24 03:01:55;;;;;;;15.00;10.33;;;;;;;;;;4955811;28;20430;-64
2022/01/24 03:04:23;;;;;;;15.83;10.30;;;;;;;;;;4954884;28;20212;-64
2022/01/24 03:06:51;;;;;;;15.47;10.30;;;;;;;;;;4953301;28;20227;-63
2022/01/24 03:09:21;;;;;;;15.67;10.67;;;;;;;;;;4955883;28;20223;-63
2022/01/24 03:12:08;;;;;;;15.33;11.10;;;;;;;;;;4956410;28;20262;-63
2022/01/24 03:14:37;;;;;;;14.73;10.43;;;;;;;;;;4949485;28;20212;-63
2022/01/24 03:17:05;;;;;;;13.90;10.13;;;;;;;;;;4955445;28;20215;-64
2022/01/24 03:19:32;;;;;;;14.40;10.00;;;;;;;;;;4954729;28;20228;-64
2022/01/24 03:22:00;;;;;;;14.80;10.37;;;;;;;;;;4953651;28;20213;-64
2022/01/24 03:24:27;;;;;;;16.80;11.23;;;;;;;;;;4952698;28;20212;-63
2022/01/24 03:26:55;;;;;;;14.33;10.50;;;;;;;;;;4955491;28;20266;-63
2022/01/24 03:29:22;;;;;;;14.90;10.77;;;;;;;;;;4955268;28;20211;-63
2022/01/24 03:31:50;;;;;;;17.00;10.67;;;;;;;;;;4951203;28;20290;-64
2022/01/24 03:34:17;;;;;;;15.07;10.17;;;;;;;;;;4954685;28;20601;-63
2022/01/24 03:36:44;;;;;;;17.20;11.17;;;;;;;;;;4954720;28;20210;-65
2022/01/24 03:39:12;;;;;;;15.17;10.37;;;;;;;;;;4946661;28;20232;-64
2022/01/24 03:41:40;;;;;;;13.73;10.90;;;;;;;;;;4961190;28;20247;-63
2022/01/24 03:44:12;;;;;;;13.43;9.73;;;;;;;;;;4960998;28;20759;-63
2022/01/24 03:47:01;;;;;;;18.00;11.07;;;;;;;;;;4954388;28;20208;-63
2022/01/24 03:52:16;;;;;;;16.30;12.17;;;;;;;;;;4947424;28;20210;-62
2022/01/24 03:54:46;;;;;;;16.70;11.93;;;;;;;;;;4952515;28;20219;-64
2022/01/24 03:57:14;;;;;;;16.33;11.80;;;;;;;;;;4952757;28;20204;-63
2022/01/24 03:59:42;;;;;;;17.10;12.70;;;;;;;;;;4951927;28;20232;-63
2022/01/24 04:02:11;;;;;;;17.30;12.93;;;;;;;;;;4954392;28;20219;-62
2022/01/24 04:04:38;;;;;;;18.80;13.37;;;;;;;;;;4950224;28;20250;-63
2022/01/24 04:07:06;;;;;;;20.97;13.93;;;;;;;;;;4952894;28;20231;-63
2022/01/24 04:09:36;;;;;;;19.40;12.83;;;;;;;;;;4950527;28;20231;-63
2022/01/24 04:12:04;;;;;;;16.90;12.83;;;;;;;;;;4952522;28;20226;-64
2022/01/24 04:14:40;;;;;;;18.97;13.63;;;;;;;;;;4952729;28;20255;-64
2022/01/24 04:17:21;;;;;;;23.27;15.50;;;;;;;;;;4947069;28;20559;-63
2022/01/24 04:22:25;;;;;;;21.93;15.17;;;;;;;;;;4944436;28;20220;-63
2022/01/24 04:24:59;;;;;;;26.97;17.83;;;;;;;;;;4948364;28;20209;-64
2022/01/24 04:27:29;;;;;;;24.03;16.87;;;;;;;;;;4948732;28;20316;-64
2022/01/24 04:29:57;;;;;;;25.10;16.47;;;;;;;;;;4946540;28;20235;-63
2022/01/24 04:32:24;;;;;;;23.33;15.67;;;;;;;;;;4951073;28;20614;-64
2022/01/24 04:34:52;;;;;;;27.73;18.40;;;;;;;;;;4947282;28;20216;-63
2022/01/24 04:37:19;;;;;;;22.20;16.07;;;;;;;;;;4953312;28;20223;-64
2022/01/24 04:39:47;;;;;;;21.93;15.83;;;;;;;;;;4950213;28;20717;-64
2022/01/24 04:42:24;;;;;;;21.93;15.33;;;;;;;;;;4946755;28;20262;-64
2022/01/24 04:50:24;;;;;;;22.53;14.63;;;;;;;;;;4954788;28;20914;-63
2022/01/24 04:51:02;;;;;;;21.13;13.60;;;;;;;;;;4950100;28;20229;-62
2022/01/24 04:55:55;;;;;;;18.07;13.17;;;;;;;;;;4947355;28;20208;-64
2022/01/24 04:58:23;;;;;;;19.97;13.93;;;;;;;;;;4964490;28;20218;-63
2022/01/24 05:00:50;;;;;;;17.33;12.77;;;;;;;;;;4976858;28;20228;-63
2022/01/24 05:03:18;;;;;;;23.70;15.40;;;;;;;;;;4970191;28;20235;-63
2022/01/24 05:05:46;;;;;;;19.00;13.73;;;;;;;;;;4965330;28;20212;-64
2022/01/24 05:08:15;;;;;;;20.60;14.47;;;;;;;;;;4967459;28;20215;-64
2022/01/24 05:11:00;;;;;;;19.07;14.17;;;;;;;;;;4968611;28;20236;-64
2022/01/24 05:24:31;;;;;;;27.27;18.87;;;;;;;;;;4966020;28;20218;-64
2022/01/24 05:26:59;;;;;;;22.63;16.17;;;;;;;;;;4990196;28;20206;-64
2022/01/24 05:29:27;;;;;;;22.93;15.60;;;;;;;;;;4969246;28;20215;-63
2022/01/24 05:31:55;;;;;;;17.63;14.40;;;;;;;;;;4965803;28;20228;-63
2022/01/24 05:34:23;;;;;;;20.40;15.37;;;;;;;;;;4966080;28;20269;-64
2022/01/24 05:36:51;;;;;;;20.90;15.93;;;;;;;;;;4967636;28;20208;-63
2022/01/24 05:39:18;;;;;;;23.50;16.17;;;;;;;;;;4966663;28;20682;-64
2022/01/24 05:41:46;;;;;;;23.33;15.93;;;;;;;;;;4969984;28;20222;-65
2022/01/24 05:44:13;;;;;;;20.97;16.10;;;;;;;;;;4972271;28;20219;-64
2022/01/24 05:46:40;;;;;;;19.57;14.40;;;;;;;;;;4975676;28;20219;-65
2022/01/24 05:49:08;;;;;;;18.87;14.37;;;;;;;;;;4967245;28;20298;-64
2022/01/24 05:51:35;;;;;;;19.07;13.97;;;;;;;;;;4972066;28;20578;-65
2022/01/24 05:54:03;;;;;;;18.47;13.40;;;;;;;;;;4972185;28;20237;-64
2022/01/24 05:56:30;;;;;;;18.07;14.27;;;;;;;;;;4970076;28;20207;-65
2022/01/24 05:58:58;;;;;;;23.53;17.17;;;;;;;;;;4969653;28;20294;-64
2022/01/24 06:01:25;;;;;;;20.70;14.43;;;;;;;;;;4968002;28;20246;-65
2022/01/24 06:03:53;;;;;;;22.93;17.90;;;;;;;;;;4974406;28;20217;-64
2022/01/24 06:06:22;;;;;;;22.27;15.77;;;;;;;;;;4969353;28;20310;-63
2022/01/24 06:08:50;;;;;;;21.90;16.13;;;;;;;;;;4966261;28;20882;-63
2022/01/24 06:11:19;;;;;;;28.13;18.30;;;;;;;;;;4977280;28;20301;-64
2022/01/24 06:13:50;;;;;;;27.97;18.23;;;;;;;;;;4969012;28;20232;-65
2022/01/24 06:16:18;;;;;;;26.97;16.87;;;;;;;;;;4966279;28;20230;-62
2022/01/24 06:18:45;;;;;;;27.80;20.17;;;;;;;;;;4966828;28;20215;-64
2022/01/24 06:21:14;;;;;;;26.50;18.47;;;;;;;;;;4961908;28;20323;-65
2022/01/24 06:23:41;;;;;;;26.17;18.40;;;;;;;;;;4967600;28;20203;-65
2022/01/24 06:26:10;;;;;;;28.83;18.87;;;;;;;;;;4972776;28;20211;-63
2022/01/24 06:28:37;;;;;;;32.20;20.27;;;;;;;;;;4968702;28;20243;-65
2022/01/24 06:31:05;;;;;;;28.23;19.93;;;;;;;;;;4968574;28;20227;-64
2022/01/24 06:33:34;;;;;;;30.63;21.07;;;;;;;;;;4975551;28;20227;-63
2022/01/24 06:36:01;;;;;;;29.67;19.27;;;;;;;;;;4966163;28;20212;-66
2022/01/24 06:38:29;;;;;;;30.40;20.17;;;;;;;;;;4968710;28;20221;-65
2022/01/24 06:40:56;;;;;;;31.17;21.33;;;;;;;;;;4972746;28;20225;-65
2022/01/24 06:43:24;;;;;;;31.67;21.53;;;;;;;;;;4972756;28;20210;-65
2022/01/24 06:45:51;;;;;;;29.70;21.00;;;;;;;;;;4971193;28;20224;-65
2022/01/24 06:48:19;;;;;;;30.33;20.60;;;;;;;;;;4969694;28;20212;-64
2022/01/24 06:50:47;;;;;;;33.17;22.33;;;;;;;;;;4970696;28;20227;-64
2022/01/24 06:53:14;;;;;;;25.60;18.63;;;;;;;;;;4970221;28;20215;-65
2022/01/24 06:55:41;;;;;;;27.40;18.60;;;;;;;;;;4975055;28;20597;-63
2022/01/24 06:58:12;;;;;;;31.40;20.63;;;;;;;;;;4973628;28;20234;-65
2022/01/24 07:00:39;;;;;;;28.07;19.17;;;;;;;;;;4976711;28;20223;-63
2022/01/24 07:03:07;;;;;;;26.67;18.17;;;;;;;;;;4971099;28;20247;-65
2022/01/24 07:05:34;;;;;;;24.10;17.43;;;;;;;;;;4958794;28;20206;-65
2022/01/24 07:08:02;;;;;;;25.33;17.17;;;;;;;;;;4966201;28;20212;-63
2022/01/24 07:10:29;;;;;;;23.60;16.87;;;;;;;;;;4966619;28;20346;-64
2022/01/24 07:12:58;;;;;;;25.87;16.90;;;;;;;;;;4971633;28;20260;-65
2022/01/24 07:15:32;;;;;;;19.77;14.20;;;;;;;;;;4965449;28;20279;-65
2022/01/24 07:18:17;;;;;;;18.93;13.33;;;;;;;;;;4964032;28;20209;-65
2022/01/24 07:20:44;;;;;;;18.73;13.73;;;;;;;;;;4970525;28;20238;-66
2022/01/24 07:23:12;;;;;;;18.87;13.73;;;;;;;;;;4969603;28;20219;-65
2022/01/24 07:25:43;;;;;;;24.10;13.67;;;;;;;;;;4965449;28;20232;-65
2022/01/24 07:28:10;;;;;;;19.70;13.80;;;;;;;;;;4963103;28;20208;-65
2022/01/24 07:30:38;;;;;;;17.63;13.13;;;;;;;;;;4967309;28;20606;-62
2022/01/24 07:33:05;;;;;;;19.57;14.20;;;;;;;;;;4967152;28;20675;-64
2022/01/24 07:35:32;;;;;;;24.87;15.10;;;;;;;;;;4965257;28;20248;-63
2022/01/24 07:38:00;;;;;;;19.20;14.00;;;;;;;;;;4983164;28;20227;-65
2022/01/24 07:40:28;;;;;;;18.20;12.97;;;;;;;;;;4969047;28;20275;-64
2022/01/24 07:43:08;;;;;;;19.87;14.03;;;;;;;;;;4965777;28;20293;-66
2022/01/24 07:45:36;;;;;;;18.83;13.77;;;;;;;;;;4962290;28;20197;-65
2022/01/24 07:48:04;;;;;;;18.13;13.67;;;;;;;;;;4958948;28;20212;-66
2022/01/24 07:50:32;;;;;;;21.10;14.83;;;;;;;;;;4958937;28;20331;-64
2022/01/24 07:53:04;;;;;;;16.30;11.67;;;;;;;;;;4962145;28;20214;-63
2022/01/24 07:55:33;;;;;;;19.33;12.80;;;;;;;;;;4962314;28;20224;-64
2022/01/24 07:58:01;;;;;;;19.30;12.50;;;;;;;;;;4960938;28;20296;-65
2022/01/24 08:00:28;;;;;;;15.57;12.63;;;;;;;;;;4963879;28;20235;-65
2022/01/24 08:02:58;;;;;;;17.30;12.80;;;;;;;;;;4958483;28;20205;-64
2022/01/24 08:05:26;;;;;;;16.80;12.27;;;;;;;;;;4959689;28;20221;-64
2022/01/24 08:07:54;;;;;;;15.37;12.47;;;;;;;;;;4967080;28;20271;-63
2022/01/24 08:10:21;;;;;;;16.37;12.13;;;;;;;;;;4977710;28;20228;-62
2022/01/24 08:12:49;;;;;;;13.90;11.50;;;;;;;;;;4950789;28;20209;-64
2022/01/24 08:15:16;;;;;;;15.43;11.30;;;;;;;;;;4960389;28;20276;-64
2022/01/24 08:17:45;;;;;;;13.27;11.00;;;;;;;;;;4966507;28;20236;-64
2022/01/24 08:20:14;;;;;;;13.33;10.77;;;;;;;;;;4962118;28;20225;-63
2022/01/24 08:23:01;;;;;;;13.17;10.00;;;;;;;;;;4959065;28;20663;-64
2022/01/24 08:25:29;;;;;;;13.87;10.63;;;;;;;;;;4978359;28;20212;-64
2022/01/24 08:27:56;;;;;;;13.73;10.70;;;;;;;;;;4974070;28;20209;-64
2022/01/24 08:30:28;;;;;;;13.77;10.90;;;;;;;;;;4968017;28;20324;-63
2022/01/24 08:32:56;;;;;;;15.50;11.13;;;;;;;;;;4973019;28;20212;-65
2022/01/24 08:35:23;;;;;;;11.60;10.03;;;;;;;;;;4974913;28;20699;-65
2022/01/24 08:37:51;;;;;;;12.90;10.13;;;;;;;;;;4973452;28;20226;-63
2022/01/24 08:40:24;;;;;;;13.07;10.27;;;;;;;;;;4974707;28;20256;-63
2022/01/24 08:43:02;;;;;;;14.13;10.90;;;;;;;;;;4979817;28;20207;-65
2022/01/24 08:45:47;;;;;;;11.90;9.57;;;;;;;;;;4967852;28;20236;-66
2022/01/24 08:48:16;;;;;;;10.93;8.67;;;;;;;;;;4967086;28;20626;-64
2022/01/24 08:50:44;;;;;;;10.57;8.80;;;;;;;;;;4964358;28;20258;-63
2022/01/24 08:53:12;;;;;;;11.37;9.33;;;;;;;;;;4981743;28;20906;-64
2022/01/24 08:55:40;;;;;;;10.80;9.17;;;;;;;;;;4979100;28;20232;-63
2022/01/24 08:58:11;;;;;;;8.53;7.17;;;;;;;;;;4963868;28;20208;-62
2022/01/24 09:00:38;;;;;;;8.90;7.70;;;;;;;;;;4967562;28;20233;-65
2022/01/24 09:03:06;;;;;;;9.83;7.97;;;;;;;;;;4965665;28;20209;-65
2022/01/24 09:05:35;;;;;;;9.23;8.03;;;;;;;;;;4976379;28;20208;-64
2022/01/24 09:08:03;;;;;;;9.90;7.73;;;;;;;;;;4974030;28;20307;-63
2022/01/24 09:10:32;;;;;;;9.50;7.40;;;;;;;;;;4972568;28;20710;-63
2022/01/24 09:12:59;;;;;;;14.37;7.77;;;;;;;;;;4974044;28;20259;-63
2022/01/24 09:15:27;;;;;;;10.63;7.97;;;;;;;;;;4984166;28;20241;-64
2022/01/24 09:17:54;;;;;;;9.73;7.90;;;;;;;;;;4965483;28;20213;-64
2022/01/24 09:20:22;;;;;;;9.17;7.70;;;;;;;;;;4973695;28;20232;-64
2022/01/24 09:22:49;;;;;;;8.97;8.07;;;;;;;;;;4975218;28;20304;-64
2022/01/24 09:25:18;;;;;;;7.90;6.93;;;;;;;;;;4980219;28;20208;-64
2022/01/24 09:27:46;;;;;;;8.17;6.97;;;;;;;;;;4976703;28;20212;-64
2022/01/24 09:30:15;;;;;;;8.57;7.00;;;;;;;;;;4980395;28;20224;-64
2022/01/24 09:32:43;;;;;;;7.73;6.70;;;;;;;;;;4973026;28;20871;-63
2022/01/24 09:35:11;;;;;;;9.20;7.23;;;;;;;;;;4972875;28;20232;-62
2022/01/24 09:37:39;;;;;;;10.37;7.90;;;;;;;;;;4968527;28;20631;-64
2022/01/24 09:40:07;;;;;;;12.57;8.43;;;;;;;;;;4980094;28;20271;-62
2022/01/24 09:42:35;;;;;;;9.50;7.10;;;;;;;;;;4970259;28;20582;-64
2022/01/24 09:45:03;;;;;;;7.07;6.37;;;;;;;;;;4971072;28;20315;-64
2022/01/24 09:47:35;;;;;;;7.10;6.30;;;;;;;;;;4970399;28;20244;-63
2022/01/24 09:50:03;;;;;;;7.00;6.20;;;;;;;;;;4985732;28;20225;-63
2022/01/24 09:52:31;;;;;;;7.37;6.40;;;;;;;;;;4994253;28;20270;-63
2022/01/24 09:54:58;;;;;;;7.07;6.20;;;;;;;;;;4965601;28;20715;-64
2022/01/24 09:57:26;;;;;;;8.60;7.10;;;;;;;;;;4966377;28;20205;-64
2022/01/24 09:59:55;;;;;;;7.50;6.70;;;;;;;;;;4978993;28;20225;-63
2022/01/24 10:02:26;;;;;;;7.60;6.37;;;;;;;;;;4977308;28;20671;-63
2022/01/24 10:05:11;;;;;;;7.23;6.47;;;;;;;;;;4971707;28;20218;-62
2022/01/24 10:07:39;;;;;;;7.90;6.37;;;;;;;;;;4975003;28;20221;-63
2022/01/24 10:10:07;;;;;;;6.20;5.60;;;;;;;;;;4974083;28;20221;-63
2022/01/24 10:18:02;;;;;;;5.77;5.27;;;;;;;;;;4961652;28;20212;-63
2022/01/24 10:20:39;;;;;;;8.00;5.93;;;;;;;;;;4973170;28;20230;-63
2022/01/24 10:23:11;;;;;;;6.90;6.10;;;;;;;;;;4979899;28;20262;-64
2022/01/24 10:25:55;;;;;;;7.17;5.87;;;;;;;;;;4969427;28;20215;-64
2022/01/24 10:28:30;;;;;;;7.57;5.70;;;;;;;;;;4968243;28;20209;-63
2022/01/24 10:31:19;;;;;;;6.43;5.70;;;;;;;;;;4979175;28;20231;-64
2022/01/24 10:33:59;;;;;;;6.57;5.60;;;;;;;;;;4972588;28;20302;-62
2022/01/24 10:36:28;;;;;;;5.90;5.20;;;;;;;;;;4966273;28;20220;-63
2022/01/24 10:39:18;;;;;;;5.97;5.33;;;;;;;;;;4962616;28;20560;-64
2022/01/24 10:41:57;;;;;;;5.60;4.90;;;;;;;;;;4973303;28;20212;-64
2022/01/24 10:44:32;;;;;;;5.00;4.50;;;;;;;;;;4968759;28;20769;-62
2022/01/24 10:47:11;;;;;;;6.30;4.67;;;;;;;;;;4967963;28;20683;-63
2022/01/24 10:49:40;;;;;;;4.77;4.33;;;;;;;;;;4967065;28;20617;-63
2022/01/24 10:52:12;;;;;;;4.60;4.20;;;;;;;;;;4972644;28;20209;-65
2022/01/24 10:54:40;;;;;;;5.10;4.60;;;;;;;;;;4962492;28;20236;-63
2022/01/24 10:57:07;;;;;;;5.00;4.60;;;;;;;;;;4960114;28;20201;-64
2022/01/24 10:59:36;;;;;;;4.93;3.93;;;;;;;;;;4970126;28;20231;-65
2022/01/24 11:02:04;;;;;;;4.87;4.47;;;;;;;;;;4972169;28;20205;-62
2022/01/24 11:04:34;;;;;;;5.23;4.50;;;;;;;;;;4964657;28;20300;-63
2022/01/24 11:07:03;;;;;;;5.23;4.60;;;;;;;;;;4953049;28;20304;-63
2022/01/24 11:09:40;;;;;;;5.30;4.80;;;;;;;;;;4954841;28;20236;-64
2022/01/24 11:12:10;;;;;;;6.03;4.70;;;;;;;;;;4959920;28;20219;-64
2022/01/24 11:14:39;;;;;;;5.20;4.60;;;;;;;;;;4968133;28;20240;-64
2022/01/24 11:17:07;;;;;;;5.10;4.60;;;;;;;;;;4951103;28;20262;-64
2022/01/24 11:19:41;;;;;;;4.17;3.80;;;;;;;;;;4953713;28;20279;-64
2022/01/24 11:22:19;;;;;;;6.87;5.00;;;;;;;;;;4951589;28;20263;-66
2022/01/24 11:24:55;;;;;;;7.80;4.77;;;;;;;;;;4949950;28;21169;-63
2022/01/24 11:27:35;;;;;;;5.20;4.80;;;;;;;;;;4960892;28;20231;-64
2022/01/24 11:30:07;;;;;;;6.13;4.90;;;;;;;;;;4956003;28;20287;-64
2022/01/24 11:32:42;;;;;;;6.43;4.67;;;;;;;;;;4944632;28;20228;-64
2022/01/24 11:35:10;;;;;;;5.03;4.60;;;;;;;;;;4943776;28;20879;-64
2022/01/24 11:37:37;;;;;;;5.33;4.80;;;;;;;;;;4949016;28;20228;-65
2022/01/24 11:40:07;;;;;;;4.60;4.20;;;;;;;;;;4955136;28;20240;-65
2022/01/24 11:42:36;;;;;;;4.37;3.90;;;;;;;;;;4963927;28;20651;-64
2022/01/24 11:45:56;;;;;;;5.97;4.77;;;;;;;;;;4967946;28;20209;-64
2022/01/24 11:48:24;;;;;;;5.80;4.67;;;;;;;;;;4967473;28;20820;-64
2022/01/24 11:50:55;;;;;;;5.23;4.73;;;;;;;;;;4973372;28;20642;-64
2022/01/24 11:53:26;;;;;;;4.93;4.47;;;;;;;;;;4967435;28;20671;-64
2022/01/24 11:55:55;;;;;;;5.53;4.70;;;;;;;;;;4976654;28;20764;-65
2022/01/24 11:58:24;;;;;;;5.47;4.97;;;;;;;;;;4964817;28;20212;-64
2022/01/24 12:00:54;;;;;;;6.10;5.00;;;;;;;;;;4981467;28;20826;-66
2022/01/24 12:03:26;;;;;;;5.57;4.80;;;;;;;;;;4982162;28;20205;-64
2022/01/24 12:05:58;;;;;;;6.13;4.50;;;;;;;;;;4968084;28;20237;-65
2022/01/24 12:08:47;;;;;;;7.77;5.30;;;;;;;;;;4969619;28;20209;-64
2022/01/24 12:11:19;;;;;;;8.80;5.33;;;;;;;;;;4965142;28;20323;-65
2022/01/24 12:14:01;;;;;;;6.30;5.17;;;;;;;;;;4966626;28;20335;-65
2022/01/24 12:16:36;;;;;;;5.40;4.90;;;;;;;;;;4964235;28;20240;-65
2022/01/24 12:19:04;;;;;;;6.50;5.73;;;;;;;;;;4973784;28;20213;-65
2022/01/24 12:21:33;;;;;;;5.80;5.20;;;;;;;;;;4967969;28;20644;-65
2022/01/24 12:24:07;;;;;;;7.40;5.33;;;;;;;;;;4970155;28;20201;-65
2022/01/24 12:26:48;;;;;;;7.80;5.50;;;;;;;;;;4963524;28;20242;-65
2022/01/24 12:29:17;;;;;;;8.03;5.17;;;;;;;;;;4962712;28;20212;-65
2022/01/24 12:31:51;;;;;;;6.13;5.53;;;;;;;;;;4951014;28;20213;-64
2022/01/24 12:34:39;;;;;;;6.93;6.23;;;;;;;;;;4957777;28;20315;-65
2022/01/24 12:37:21;;;;;;;5.93;5.33;;;;;;;;;;4958845;28;20235;-65
2022/01/24 12:39:52;;;;;;;6.40;5.80;;;;;;;;;;4965774;28;20227;-64
2022/01/24 12:42:31;;;;;;;7.67;6.53;;;;;;;;;;4961854;28;20212;-65
2022/01/24 12:47:44;;;;;;;5.77;5.17;;;;;;;;;;4957554;28;20205;-66
2022/01/24 12:50:11;;;;;;;7.17;6.47;;;;;;;;;;4963377;28;20232;-65
2022/01/24 12:52:39;;;;;;;10.07;8.27;;;;;;;;;;4961390;28;20211;-65
2022/01/24 12:55:08;;;;;;;8.97;7.27;;;;;;;;;;4962601;28;20672;-65
2022/01/24 12:57:41;;;;;;;9.10;8.13;;;;;;;;;;4968382;28;20208;-65
2022/01/24 13:00:16;;;;;;;9.80;7.97;;;;;;;;;;4969114;28;20601;-66
2022/01/24 13:02:44;;;;;;;8.10;7.27;;;;;;;;;;4960236;28;21526;-66
2022/01/24 13:05:16;;;;;;;9.07;8.13;;;;;;;;;;4965553;28;20339;-64
2022/01/24 13:07:53;;;;;;;10.00;8.23;;;;;;;;;;4976839;28;20224;-65
2022/01/24 13:10:22;;;;;;;8.53;7.57;;;;;;;;;;4977454;28;20228;-66
2022/01/24 13:12:57;;;;;;;9.67;7.73;;;;;;;;;;4974174;28;20204;-65
2022/01/24 13:23:31;;;;;;;9.60;8.57;;;;;;;;;;4966037;28;20221;-65
2022/01/24 13:25:58;;;;;;;10.47;8.23;;;;;;;;;;4971696;28;20205;-65
2022/01/24 13:28:26;;;;;;;10.33;8.87;;;;;;;;;;4968562;28;20226;-65
2022/01/24 13:31:01;;;;;;;10.57;8.50;;;;;;;;;;4960900;28;20233;-66
2022/01/24 13:33:33;;;;;;;9.40;8.40;;;;;;;;;;4961837;28;20213;-65
2022/01/24 13:36:04;;;;;;;10.20;9.03;;;;;;;;;;4963814;28;20252;-65
2022/01/24 13:38:33;;;;;;;11.27;9.13;;;;;;;;;;4972577;28;20227;-65
2022/01/24 13:41:07;;;;;;;11.27;9.10;;;;;;;;;;4965662;28;20233;-65
2022/01/24 13:43:35;;;;;;;9.60;8.53;;;;;;;;;;4975629;28;20204;-65
2022/01/24 13:46:04;;;;;;;11.17;9.50;;;;;;;;;;4969469;28;20256;-65
2022/01/24 13:48:38;;;;;;;10.47;8.43;;;;;;;;;;4987207;28;20208;-65
2022/01/24 13:51:06;;;;;;;10.53;9.00;;;;;;;;;;4972598;28;20240;-65
2022/01/24 13:53:44;;;;;;;9.97;8.40;;;;;;;;;;4969806;28;20698;-65
2022/01/24 13:56:17;;;;;;;9.73;8.50;;;;;;;;;;4950141;28;20236;-66
2022/01/24 13:59:03;;;;;;;10.73;9.27;;;;;;;;;;4975547;28;20209;-66
2022/01/24 14:01:31;;;;;;;9.93;8.47;;;;;;;;;;4969413;28;20237;-65
2022/01/24 14:04:00;;;;;;;9.17;8.10;;;;;;;;;;4967308;28;20216;-65
2022/01/24 14:06:31;;;;;;;10.33;8.50;;;;;;;;;;4963244;28;20296;-65
2022/01/24 14:09:17;;;;;;;9.77;8.50;;;;;;;;;;4961995;28;20209;-65
2022/01/24 14:11:47;;;;;;;9.63;8.40;;;;;;;;;;4963515;28;20327;-65
2022/01/24 14:14:19;;;;;;;10.37;8.10;;;;;;;;;;4966074;28;20212;-65
2022/01/24 14:17:11;;;;;;;11.40;7.77;;;;;;;;;;4963415;28;20236;-66
2022/01/24 14:19:37;;;;;;;9.57;7.63;;;;;;;;;;4968281;28;20274;-66
2022/01/24 14:22:04;;;;;;;9.50;7.80;;;;;;;;;;4971651;28;20208;-66
2022/01/24 14:25:04;;;;;;;8.53;7.67;;;;;;;;;;4974114;28;20205;-65
2022/01/24 14:27:43;;;;;;;9.67;8.53;;;;;;;;;;4953041;28;20678;-65
2022/01/24 14:30:30;;;;;;;10.10;7.80;;;;;;;;;;4968762;28;20225;-65
2022/01/24 14:33:18;;;;;;;10.07;8.20;;;;;;;;;;4957555;28;20271;-66
2022/01/24 14:35:55;;;;;;;10.40;7.83;;;;;;;;;;4969971;28;20232;-65
2022/01/24 14:38:28;;;;;;;9.00;8.00;;;;;;;;;;4971664;28;20216;-65
2022/01/24 14:41:01;;;;;;;10.13;8.60;;;;;;;;;;4968253;28;20237;-64
2022/01/24 14:46:20;;;;;;;8.93;8.00;;;;;;;;;;4972627;28;20221;-63
2022/01/24 14:48:50;;;;;;;9.93;8.90;;;;;;;;;;4968808;28;20577;-65
2022/01/24 14:51:22;;;;;;;10.83;8.73;;;;;;;;;;4964149;28;20235;-65
2022/01/24 14:53:50;;;;;;;11.40;8.93;;;;;;;;;;4963549;28;20217;-65
2022/01/24 14:56:18;;;;;;;10.73;8.57;;;;;;;;;;4967611;28;20263;-65
2022/01/24 14:58:46;;;;;;;9.87;8.83;;;;;;;;;;4965338;28;20679;-67
2022/01/24 15:01:14;;;;;;;10.63;9.33;;;;;;;;;;4973010;28;20239;-65
2022/01/24 15:03:42;;;;;;;10.10;8.87;;;;;;;;;;4983172;28;20207;-66
2022/01/24 15:06:10;;;;;;;9.80;8.80;;;;;;;;;;4962630;28;20219;-64
2022/01/24 15:08:39;;;;;;;10.97;8.43;;;;;;;;;;4958016;28;20577;-65
2022/01/24 15:11:07;;;;;;;10.10;8.77;;;;;;;;;;4956009;28;20237;-65
2022/01/24 15:13:41;;;;;;;12.40;9.43;;;;;;;;;;4964693;28;20219;-65
2022/01/24 15:16:17;;;;;;;12.10;9.40;;;;;;;;;;4972883;28;20228;-64
2022/01/24 15:26:50;;;;;;;11.47;9.37;;;;;;;;;;4970127;28;20239;-64
2022/01/24 15:29:18;;;;;;;14.30;11.23;;;;;;;;;;4960934;28;20287;-65
2022/01/24 15:31:45;;;;;;;14.97;11.57;;;;;;;;;;4968596;28;20216;-64
2022/01/24 15:34:14;;;;;;;14.73;10.80;;;;;;;;;;4962524;28;20224;-64
2022/01/24 15:36:43;;;;;;;13.13;10.13;;;;;;;;;;4959753;28;20224;-65
2022/01/24 15:39:11;;;;;;;15.07;11.20;;;;;;;;;;4948991;28;20201;-63
2022/01/24 15:41:50;;;;;;;14.30;11.43;;;;;;;;;;4967852;28;20213;-65
2022/01/24 15:44:34;;;;;;;13.67;11.03;;;;;;;;;;4950162;28;20818;-64
2022/01/24 15:47:55;;;;;;;11.70;9.47;;;;;;;;;;4953113;28;20215;-65
2022/01/24 15:49:53;;;;;;;14.57;10.97;;;;;;;;;;4948980;28;20730;-64
2022/01/24 15:52:22;;;;;;;13.47;11.40;;;;;;;;;;4954926;28;20349;-65
2022/01/24 15:54:52;;;;;;;14.50;11.40;;;;;;;;;;4962812;28;20224;-64
2022/01/24 16:00:26;;;;;;;31.57;18.13;;;;;;;;;;4953254;28;20711;-64
2022/01/24 16:02:55;;;;;;;22.53;14.83;;;;;;;;;;4963005;28;20214;-65
2022/01/24 16:05:24;;;;;;;24.77;15.80;;;;;;;;;;4958067;28;20220;-64
2022/01/24 16:07:52;;;;;;;23.30;14.97;;;;;;;;;;4973076;28;20255;-64
2022/01/24 16:10:22;;;;;;;24.73;16.33;;;;;;;;;;4954681;28;20240;-65
2022/01/24 16:12:50;;;;;;;24.67;17.37;;;;;;;;;;4953686;28;20292;-65
2022/01/24 16:15:18;;;;;;;26.13;17.77;;;;;;;;;;4960033;28;20209;-64
2022/01/24 16:17:47;;;;;;;31.87;20.97;;;;;;;;;;4952024;28;20240;-65
2022/01/24 16:20:28;;;;;;;43.67;26.37;;;;;;;;;;4958789;28;20224;-64
2022/01/24 16:23:04;;;;;;;50.10;28.73;;;;;;;;;;4954466;28;20283;-63
2022/01/24 16:25:34;;;;;;;41.57;24.43;;;;;;;;;;4957623;28;20684;-64
2022/01/24 16:28:03;;;;;;;68.93;35.47;;;;;;;;;;4956470;28;20208;-64
2022/01/24 16:30:31;;;;;;;56.80;31.37;;;;;;;;;;4938331;28;20237;-64
2022/01/24 16:32:58;;;;;;;61.53;33.73;;;;;;;;;;4953893;28;20201;-64
2022/01/24 16:35:27;;;;;;;70.40;38.47;;;;;;;;;;4967442;28;20787;-64
2022/01/24 16:37:54;;;;;;;72.77;45.20;;;;;;;;;;4954158;28;20228;-63
2022/01/24 16:40:33;;;;;;;58.00;37.70;;;;;;;;;;4963195;28;20307;-63
2022/01/24 16:48:34;;;;;;;33.83;24.60;;;;;;;;;;4941581;28;20384;-64
2022/01/24 16:51:04;;;;;;;36.53;24.17;;;;;;;;;;4957162;28;20263;-65
2022/01/24 16:53:31;;;;;;;32.53;22.63;;;;;;;;;;4954646;28;20208;-64
2022/01/24 16:55:59;;;;;;;35.70;23.33;;;;;;;;;;4954166;28;20241;-64
2022/01/24 16:58:29;;;;;;;38.73;23.50;;;;;;;;;;4950229;28;20224;-64
2022/01/24 17:00:56;;;;;;;37.53;24.40;;;;;;;;;;4952510;28;20229;-64